createdAt,value
2019-03-16T00:00:35.260Z,8.68
2019-03-16T00:03:08.093Z,8.62
2019-03-16T00:05:40.985Z,8.61
2019-03-16T00:08:13.969Z,8.55
2019-03-16T00:10:46.965Z,8.53
2019-03-16T00:13:19.819Z,8.52
2019-03-16T00:15:52.844Z,8.47
2019-03-16T00:18:25.666Z,8.44
2019-03-16T00:20:58.559Z,8.47
2019-03-16T00:23:31.491Z,8.48
2019-03-16T00:26:04.386Z,8.49
2019-03-16T00:28:37.245Z,8.53
2019-03-16T00:31:10.156Z,8.48
2019-03-16T00:33:43.071Z,8.47
2019-03-16T00:36:16.090Z,8.46
2019-03-16T00:38:48.969Z,8.44
2019-03-16T00:41:21.950Z,8.43
2019-03-16T00:43:54.968Z,8.44
2019-03-16T00:46:27.925Z,8.40
2019-03-16T00:49:00.867Z,8.24
2019-03-16T00:51:33.870Z,8.14
2019-03-16T00:54:06.858Z,7.89
2019-03-16T00:56:39.831Z,7.78
2019-03-16T00:59:12.823Z,7.61
2019-03-16T01:01:45.715Z,7.61
2019-03-16T01:04:18.847Z,7.90
2019-03-16T01:06:51.776Z,7.91
2019-03-16T01:09:24.601Z,7.93
2019-03-16T01:11:57.665Z,8.27
2019-03-16T01:14:30.551Z,8.43
2019-03-16T01:17:03.426Z,8.53
2019-03-16T01:19:36.317Z,8.57
2019-03-16T01:22:09.275Z,8.57
2019-03-16T01:24:42.196Z,8.66
2019-03-16T01:27:15.096Z,8.66
2019-03-16T01:29:48.002Z,8.66
2019-03-16T01:32:20.863Z,8.58
2019-03-16T01:34:53.669Z,8.51
2019-03-16T01:37:26.619Z,8.44
2019-03-16T01:39:59.539Z,8.40
2019-03-16T01:42:32.482Z,8.51
2019-03-16T01:45:05.731Z,8.55
2019-03-16T01:47:38.615Z,8.49
2019-03-16T01:50:11.681Z,8.50
2019-03-16T01:52:44.612Z,8.42
2019-03-16T01:55:17.457Z,8.43
2019-03-16T01:57:50.406Z,8.33
2019-03-16T02:00:23.471Z,8.32
2019-03-16T02:02:56.477Z,8.24
2019-03-16T02:05:29.469Z,8.36
2019-03-16T02:08:02.436Z,8.33
2019-03-16T02:10:35.491Z,8.34
2019-03-16T02:13:08.360Z,8.30
2019-03-16T02:15:41.239Z,8.28
2019-03-16T02:18:14.203Z,8.31
2019-03-16T02:20:47.159Z,8.44
2019-03-16T02:23:20.162Z,8.60
2019-03-16T02:25:54.297Z,8.59
2019-03-16T02:28:27.213Z,8.61
2019-03-16T02:31:00.175Z,8.62
2019-03-16T02:33:32.999Z,8.69
2019-03-16T02:36:05.960Z,8.68
2019-03-16T02:38:38.919Z,8.68
2019-03-16T02:41:11.835Z,8.76
2019-03-16T02:43:44.676Z,8.78
2019-03-16T02:46:17.534Z,8.72
2019-03-16T02:48:50.510Z,8.65
2019-03-16T02:51:23.412Z,8.64
2019-03-16T02:53:56.252Z,8.66
2019-03-16T02:56:29.176Z,8.65
2019-03-16T02:59:01.984Z,8.61
2019-03-16T03:01:34.993Z,8.50
2019-03-16T03:04:07.870Z,8.55
2019-03-16T03:06:40.883Z,8.62
2019-03-16T03:09:13.986Z,8.67
2019-03-16T03:11:46.938Z,8.77
2019-03-16T03:14:20.637Z,8.80
2019-03-16T03:16:53.517Z,8.79
2019-03-16T03:19:26.597Z,8.75
2019-03-16T03:21:59.696Z,8.70
2019-03-16T03:24:32.814Z,8.74
2019-03-16T03:27:05.864Z,8.64
2019-03-16T03:29:38.806Z,8.56
2019-03-16T03:32:11.870Z,8.65
2019-03-16T03:34:44.936Z,8.72
2019-03-16T03:37:17.876Z,8.69
2019-03-16T03:39:50.874Z,8.69
2019-03-16T03:42:23.865Z,8.73
2019-03-16T03:44:57.020Z,8.65
2019-03-16T03:47:29.988Z,8.67
2019-03-16T03:50:02.958Z,8.67
2019-03-16T03:52:35.783Z,8.61
2019-03-16T03:55:11.301Z,8.48
2019-03-16T03:57:44.470Z,8.38
2019-03-16T04:00:17.795Z,8.48
2019-03-16T04:02:50.990Z,8.50
2019-03-16T04:05:24.004Z,8.37
2019-03-16T04:07:57.003Z,8.23
2019-03-16T04:10:30.035Z,8.32
2019-03-16T04:13:03.123Z,8.27
2019-03-16T04:15:36.149Z,8.08
2019-03-16T04:18:09.219Z,8.05
2019-03-16T04:20:42.162Z,7.85
2019-03-16T04:23:15.135Z,7.80
2019-03-16T04:25:48.059Z,7.72
2019-03-16T04:28:20.998Z,7.63
2019-03-16T04:30:53.989Z,7.64
2019-03-16T04:33:27.012Z,7.80
2019-03-16T04:36:00.060Z,7.96
2019-03-16T04:38:33.070Z,8.02
2019-03-16T04:41:06.003Z,8.07
2019-03-16T04:43:38.863Z,8.18
2019-03-16T04:46:11.787Z,8.20
2019-03-16T04:48:44.654Z,8.27
2019-03-16T04:51:17.537Z,8.32
2019-03-16T04:53:50.392Z,8.33
2019-03-16T04:56:23.381Z,8.37
2019-03-16T04:58:56.347Z,8.31
2019-03-16T05:01:29.210Z,8.36
2019-03-16T05:04:02.157Z,8.44
2019-03-16T05:06:35.009Z,8.42
2019-03-16T05:09:09.204Z,8.44
2019-03-16T05:11:42.159Z,8.43
2019-03-16T05:14:15.074Z,8.47
2019-03-16T05:16:48.008Z,8.53
2019-03-16T05:19:21.003Z,8.54
2019-03-16T05:21:53.496Z,8.59
2019-03-16T05:24:26.304Z,8.57
2019-03-16T05:27:01.070Z,8.61
2019-03-16T05:29:33.887Z,8.54
2019-03-16T05:32:06.848Z,8.51
2019-03-16T05:34:39.733Z,8.52
2019-03-16T05:37:12.614Z,8.53
2019-03-16T05:39:45.597Z,8.55
2019-03-16T05:42:18.504Z,8.56
2019-03-16T05:44:51.394Z,8.55
2019-03-16T05:47:24.411Z,8.53
2019-03-16T05:49:57.287Z,8.52
2019-03-16T05:52:30.281Z,8.50
2019-03-16T05:55:03.135Z,8.49
2019-03-16T05:57:35.931Z,8.48
2019-03-16T06:00:10.305Z,8.48
2019-03-16T06:02:43.127Z,8.52
2019-03-16T06:05:16.204Z,8.52
2019-03-16T06:07:49.174Z,8.54
2019-03-16T06:10:22.071Z,8.52
2019-03-16T06:12:55.085Z,8.46
2019-03-16T06:15:28.265Z,8.52
2019-03-16T06:18:01.163Z,8.58
2019-03-16T06:20:33.997Z,8.60
2019-03-16T06:23:06.999Z,8.63
2019-03-16T06:25:39.931Z,8.64
2019-03-16T06:28:12.957Z,8.64
2019-03-16T06:30:45.990Z,8.61
2019-03-16T06:33:18.950Z,8.65
2019-03-16T06:35:51.890Z,8.64
2019-03-16T06:38:24.860Z,8.63
2019-03-16T06:40:57.698Z,8.67
2019-03-16T06:43:30.617Z,8.69
2019-03-16T06:46:03.409Z,8.72
2019-03-16T06:48:39.339Z,8.69
2019-03-16T06:51:15.098Z,8.73
2019-03-16T06:53:48.140Z,8.76
2019-03-16T06:56:23.508Z,8.79
2019-03-16T06:58:58.586Z,8.86
2019-03-16T07:01:31.553Z,8.90
2019-03-16T07:04:04.533Z,8.92
2019-03-16T07:06:37.631Z,8.93
2019-03-16T07:09:10.987Z,8.95
2019-03-16T07:11:43.932Z,8.97
2019-03-16T07:14:18.071Z,8.96
2019-03-16T07:17:01.313Z,8.98
2019-03-16T07:19:25.666Z,8.98
2019-03-16T07:21:58.536Z,9.00
2019-03-16T07:24:31.443Z,9.00
2019-03-16T07:27:04.378Z,9.01
2019-03-16T07:29:37.340Z,8.98
2019-03-16T07:32:12.431Z,8.99
2019-03-16T07:34:45.474Z,8.92
2019-03-16T07:37:18.443Z,9.09
2019-03-16T07:39:51.334Z,9.20
2019-03-16T07:42:24.475Z,9.40
2019-03-16T07:45:07.547Z,9.21
2019-03-16T07:47:31.956Z,9.31
2019-03-16T07:50:05.592Z,9.25
2019-03-16T07:52:38.495Z,9.22
2019-03-16T07:55:11.733Z,9.29
2019-03-16T07:57:44.646Z,9.50
2019-03-16T08:00:17.531Z,9.51
2019-03-16T08:02:50.361Z,9.72
2019-03-16T08:05:23.197Z,9.55
2019-03-16T08:07:57.397Z,9.60
2019-03-16T08:10:30.382Z,9.68
2019-03-16T08:13:03.561Z,9.62
2019-03-16T08:15:36.465Z,9.69
2019-03-16T08:18:09.358Z,9.74
2019-03-16T08:20:42.331Z,10.09
2019-03-16T08:23:15.273Z,10.54
2019-03-16T08:25:49.304Z,10.48
2019-03-16T08:28:22.205Z,10.59
2019-03-16T08:30:56.839Z,10.63
2019-03-16T08:33:30.022Z,10.42
2019-03-16T08:36:03.009Z,10.49
2019-03-16T08:38:35.931Z,10.68
2019-03-16T08:41:08.854Z,10.88
2019-03-16T08:43:41.834Z,10.88
2019-03-16T08:46:14.121Z,11.17
2019-03-16T08:48:47.069Z,11.50
2019-03-16T08:51:19.973Z,11.08
2019-03-16T08:53:52.918Z,11.74
2019-03-16T08:56:25.881Z,12.49
2019-03-16T08:58:58.846Z,14.44
2019-03-16T09:01:31.825Z,15.55
2019-03-16T09:04:04.737Z,16.22
2019-03-16T09:06:37.275Z,15.59
2019-03-16T09:09:10.580Z,14.89
2019-03-16T09:11:43.610Z,14.91
2019-03-16T09:14:16.610Z,14.39
2019-03-16T09:16:49.539Z,15.42
2019-03-16T09:19:22.474Z,16.62
2019-03-16T09:21:56.067Z,16.24
2019-03-16T09:24:31.508Z,16.28
2019-03-16T09:27:04.429Z,15.49
2019-03-16T09:29:37.339Z,15.56
2019-03-16T09:32:10.344Z,15.50
2019-03-16T09:34:42.397Z,16.42
2019-03-16T09:37:15.257Z,16.51
2019-03-16T09:39:48.209Z,15.51
2019-03-16T09:42:21.165Z,15.36
2019-03-16T09:44:54.206Z,16.09
2019-03-16T09:47:27.250Z,16.87
2019-03-16T09:50:00.504Z,16.12
2019-03-16T09:52:33.689Z,16.10
2019-03-16T09:55:07.071Z,17.05
2019-03-16T09:57:39.922Z,17.38
2019-03-16T10:00:14.170Z,17.58
2019-03-16T10:02:47.065Z,16.79
2019-03-16T10:05:20.017Z,16.87
2019-03-16T10:07:52.903Z,17.21
2019-03-16T10:10:25.853Z,16.20
2019-03-16T10:12:58.714Z,16.03
2019-03-16T10:15:31.598Z,16.52
2019-03-16T10:18:04.514Z,16.92
2019-03-16T10:20:37.546Z,16.12
2019-03-16T10:23:10.542Z,16.32
2019-03-16T10:25:43.465Z,15.75
2019-03-16T10:28:17.707Z,15.56
2019-03-16T10:30:50.704Z,15.96
2019-03-16T10:33:23.976Z,15.59
2019-03-16T10:35:56.870Z,15.64
2019-03-16T10:38:29.905Z,16.15
2019-03-16T10:41:02.846Z,16.34
2019-03-16T10:43:36.278Z,17.17
2019-03-16T10:46:09.218Z,16.33
2019-03-16T10:48:42.107Z,16.45
2019-03-16T10:51:15.217Z,17.15
2019-03-16T10:53:48.254Z,17.44
2019-03-16T10:56:25.040Z,17.48
2019-03-16T10:59:01.327Z,16.57
2019-03-16T11:01:34.248Z,17.17
2019-03-16T11:04:08.383Z,16.90
2019-03-16T11:06:41.313Z,17.11
2019-03-16T11:09:13.827Z,17.14
2019-03-16T11:11:52.376Z,16.78
2019-03-16T11:14:26.103Z,16.87
2019-03-16T11:16:59.005Z,16.84
2019-03-16T11:19:32.003Z,16.39
2019-03-16T11:22:04.968Z,17.18
2019-03-16T11:24:38.025Z,17.93
2019-03-16T11:27:11.041Z,17.42
2019-03-16T11:29:43.918Z,17.90
2019-03-16T11:32:16.901Z,17.60
2019-03-16T11:34:49.885Z,17.93
2019-03-16T11:37:22.910Z,18.21
2019-03-16T11:39:55.824Z,18.94
2019-03-16T11:42:28.774Z,18.42
2019-03-16T11:45:01.691Z,18.52
2019-03-16T11:47:34.647Z,18.57
2019-03-16T11:50:08.815Z,18.52
2019-03-16T11:52:41.694Z,18.12
2019-03-16T11:55:14.674Z,18.18
2019-03-16T11:57:47.588Z,18.61
2019-03-16T12:00:20.415Z,17.95
2019-03-16T12:02:53.278Z,18.08
2019-03-16T12:05:26.201Z,18.86
2019-03-16T12:07:59.189Z,19.29
2019-03-16T12:10:32.111Z,19.55
2019-03-16T12:13:16.460Z,19.22
2019-03-16T12:15:39.504Z,19.50
2019-03-16T12:18:12.430Z,19.17
2019-03-16T12:20:45.304Z,18.57
2019-03-16T12:23:18.260Z,18.81
2019-03-16T12:25:51.161Z,18.92
2019-03-16T12:28:24.128Z,19.37
2019-03-16T12:30:56.992Z,18.82
2019-03-16T12:33:29.968Z,19.25
2019-03-16T12:36:02.829Z,19.68
2019-03-16T12:38:35.672Z,19.95
2019-03-16T12:41:08.503Z,19.46
2019-03-16T12:43:41.457Z,19.51
2019-03-16T12:46:14.439Z,19.68
2019-03-16T12:48:47.455Z,19.91
2019-03-16T12:51:20.566Z,20.16
2019-03-16T12:53:53.539Z,19.61
2019-03-16T12:56:27.346Z,19.89
2019-03-16T12:59:09.880Z,20.55
2019-03-16T13:01:34.766Z,20.60
2019-03-16T13:04:07.785Z,21.36
2019-03-16T13:06:40.867Z,20.77
2019-03-16T13:09:13.878Z,21.18
2019-03-16T13:11:46.783Z,22.24
2019-03-16T13:14:19.787Z,22.71
2019-03-16T13:16:52.743Z,22.29
2019-03-16T13:19:25.683Z,22.47
2019-03-16T13:21:59.763Z,22.87
2019-03-16T13:24:32.641Z,22.07
2019-03-16T13:27:05.557Z,21.72
2019-03-16T13:29:38.542Z,22.33
2019-03-16T13:32:11.477Z,23.04
2019-03-16T13:34:44.393Z,22.22
2019-03-16T13:37:17.237Z,22.38
2019-03-16T13:39:50.059Z,22.50
2019-03-16T13:42:23.049Z,22.88
2019-03-16T13:44:55.897Z,23.52
2019-03-16T13:47:28.854Z,24.00
2019-03-16T13:50:01.812Z,23.62
2019-03-16T13:52:34.699Z,23.10
2019-03-16T13:55:08.349Z,22.61
2019-03-16T13:57:41.304Z,21.58
2019-03-16T14:00:15.371Z,22.48
2019-03-16T14:02:48.246Z,22.91
2019-03-16T14:05:21.113Z,23.01
2019-03-16T14:07:54.119Z,21.61
2019-03-16T14:10:27.542Z,22.12
2019-03-16T14:13:00.491Z,21.75
2019-03-16T14:15:34.470Z,21.42
2019-03-16T14:18:07.608Z,21.08
2019-03-16T14:20:40.582Z,21.48
2019-03-16T14:23:13.644Z,20.78
2019-03-16T14:25:46.860Z,21.18
2019-03-16T14:28:19.769Z,21.77
2019-03-16T14:30:52.764Z,22.02
2019-03-16T14:33:25.703Z,22.15
2019-03-16T14:35:58.778Z,22.15
2019-03-16T14:38:31.753Z,21.43
2019-03-16T14:41:04.631Z,21.69
2019-03-16T14:43:37.644Z,21.71
2019-03-16T14:46:10.744Z,21.27
2019-03-16T14:48:43.757Z,20.69
2019-03-16T14:51:16.783Z,20.90
2019-03-16T14:53:49.768Z,21.07
2019-03-16T14:56:22.666Z,21.02
2019-03-16T14:58:55.579Z,21.25
2019-03-16T15:01:28.633Z,21.08
2019-03-16T15:04:01.629Z,20.80
2019-03-16T15:06:34.699Z,20.58
2019-03-16T15:09:08.974Z,19.74
2019-03-16T15:11:42.050Z,19.05
2019-03-16T15:14:21.545Z,19.29
2019-03-16T15:16:49.487Z,19.18
2019-03-16T15:19:22.472Z,19.03
2019-03-16T15:21:55.428Z,19.32
2019-03-16T15:24:28.349Z,19.24
2019-03-16T15:27:01.345Z,19.68
2019-03-16T15:29:34.306Z,19.92
2019-03-16T15:32:07.394Z,20.18
2019-03-16T15:34:40.326Z,20.02
2019-03-16T15:37:13.345Z,20.40
2019-03-16T15:39:46.268Z,20.39
2019-03-16T15:42:19.311Z,19.96
2019-03-16T15:44:52.137Z,19.68
2019-03-16T15:47:24.997Z,19.37
2019-03-16T15:49:58.601Z,19.11
2019-03-16T15:52:31.669Z,18.82
2019-03-16T15:55:04.744Z,18.63
2019-03-16T15:57:37.758Z,18.16
2019-03-16T16:00:12.421Z,18.03
2019-03-16T16:02:44.916Z,18.15
2019-03-16T16:05:17.878Z,18.26
2019-03-16T16:07:51.200Z,18.10
2019-03-16T16:10:24.081Z,18.06
2019-03-16T16:12:56.959Z,17.93
2019-03-16T16:15:29.822Z,18.03
2019-03-16T16:18:02.884Z,17.74
2019-03-16T16:20:35.796Z,17.64
2019-03-16T16:23:08.849Z,17.60
2019-03-16T16:25:41.875Z,17.50
2019-03-16T16:28:14.920Z,17.56
2019-03-16T16:30:47.983Z,17.35
2019-03-16T16:33:20.961Z,17.18
2019-03-16T16:35:54.126Z,17.13
2019-03-16T16:38:27.258Z,16.78
2019-03-16T16:41:00.363Z,16.60
2019-03-16T16:43:32.680Z,16.48
2019-03-16T16:46:05.759Z,16.57
2019-03-16T16:48:38.726Z,16.56
2019-03-16T16:51:11.698Z,16.57
2019-03-16T16:53:44.725Z,16.46
2019-03-16T16:56:17.552Z,16.19
2019-03-16T16:58:50.648Z,15.94
2019-03-16T17:01:29.388Z,15.94
2019-03-16T17:03:58.121Z,15.86
2019-03-16T17:06:31.160Z,15.66
2019-03-16T17:09:04.503Z,15.59
2019-03-16T17:11:37.638Z,15.54
2019-03-16T17:14:10.808Z,15.34
2019-03-16T17:16:43.889Z,15.30
2019-03-16T17:19:16.829Z,14.98
2019-03-16T17:21:49.875Z,14.50
2019-03-16T17:24:22.717Z,13.87
2019-03-16T17:26:55.756Z,13.14
2019-03-16T17:29:28.573Z,12.64
2019-03-16T17:32:01.525Z,12.27
2019-03-16T17:34:34.471Z,11.79
2019-03-16T17:37:07.357Z,11.44
2019-03-16T17:39:40.232Z,10.98
2019-03-16T17:42:13.312Z,10.73
2019-03-16T17:44:46.200Z,10.52
2019-03-16T17:47:19.264Z,10.34
2019-03-16T17:49:52.304Z,10.14
2019-03-16T17:52:25.366Z,9.93
2019-03-16T17:54:58.235Z,9.85
2019-03-16T17:57:31.144Z,9.95
2019-03-16T18:00:04.243Z,9.77
2019-03-16T18:02:50.107Z,9.65
2019-03-16T18:05:11.849Z,9.58
2019-03-16T18:07:47.127Z,9.79
2019-03-16T18:10:23.303Z,9.78
2019-03-16T18:12:56.241Z,9.81
2019-03-16T18:15:29.172Z,9.82
2019-03-16T18:18:02.126Z,10.34
2019-03-16T18:20:37.474Z,10.56
2019-03-16T18:23:15.868Z,10.40
2019-03-16T18:25:50.696Z,10.70
2019-03-16T18:28:25.442Z,11.31
2019-03-16T18:30:58.329Z,11.29
2019-03-16T18:33:43.915Z,11.68
2019-03-16T18:36:16.932Z,11.99
2019-03-16T18:38:50.048Z,11.78
2019-03-16T18:41:23.092Z,11.47
2019-03-16T18:43:55.987Z,11.36
2019-03-16T18:46:28.927Z,10.74
2019-03-16T18:49:01.770Z,10.12
2019-03-16T18:51:34.798Z,10.03
2019-03-16T18:54:07.886Z,9.62
2019-03-16T18:56:40.809Z,9.47
2019-03-16T18:59:13.748Z,9.21
2019-03-16T19:01:46.666Z,9.24
2019-03-16T19:04:19.687Z,9.24
2019-03-16T19:06:52.786Z,9.07
2019-03-16T19:09:53.813Z,9.00
2019-03-16T19:12:27.295Z,8.82
2019-03-16T19:15:20.498Z,9.02
2019-03-16T19:18:19.779Z,8.81
2019-03-16T19:20:53.088Z,8.45
2019-03-16T19:23:34.721Z,8.61
2019-03-16T19:26:25.615Z,8.58
2019-03-16T19:29:00.663Z,8.60
2019-03-16T19:31:34.831Z,8.42
2019-03-16T19:34:13.189Z,8.07
2019-03-16T19:37:34.565Z,7.86
2019-03-16T19:40:33.255Z,7.95
2019-03-16T19:43:50.192Z,7.87
2019-03-16T19:47:05.012Z,7.69
2019-03-16T19:49:39.089Z,7.65
2019-03-16T19:52:12.026Z,7.76
2019-03-16T19:54:44.977Z,7.61
2019-03-16T19:57:17.859Z,7.38
2019-03-16T19:59:50.613Z,7.43
2019-03-16T20:02:23.499Z,7.66
2019-03-16T20:04:56.326Z,7.65
2019-03-16T20:07:29.164Z,7.66
2019-03-16T20:10:02.092Z,7.39
2019-03-16T20:12:35.039Z,7.26
2019-03-16T20:15:08.724Z,7.28
2019-03-16T20:17:41.589Z,7.37
2019-03-16T20:20:14.721Z,7.39
2019-03-16T20:22:47.696Z,7.00
2019-03-16T20:25:20.583Z,6.84
2019-03-16T20:27:53.396Z,6.99
2019-03-16T20:30:27.192Z,6.75
2019-03-16T20:33:04.514Z,6.46
2019-03-16T20:35:34.781Z,6.49
2019-03-16T20:38:09.090Z,7.23
2019-03-16T20:40:41.927Z,7.25
2019-03-16T20:43:14.718Z,7.03
2019-03-16T20:45:47.649Z,7.00
2019-03-16T20:48:20.443Z,7.26
2019-03-16T20:50:53.392Z,7.01
2019-03-16T20:53:26.216Z,7.03
2019-03-16T20:55:59.262Z,7.67
2019-03-16T20:58:32.161Z,7.11
2019-03-16T21:01:05.103Z,7.32
2019-03-16T21:03:38.038Z,7.23
2019-03-16T21:06:11.031Z,7.18
2019-03-16T21:08:43.849Z,7.44
2019-03-16T21:11:16.808Z,7.34
2019-03-16T21:13:50.082Z,7.29
2019-03-16T21:16:22.842Z,7.11
2019-03-16T21:18:55.655Z,7.19
2019-03-16T21:21:29.928Z,7.03
2019-03-16T21:24:02.725Z,6.96
2019-03-16T21:26:35.659Z,7.11
2019-03-16T21:29:08.630Z,7.22
2019-03-16T21:31:40.639Z,7.15
2019-03-16T21:34:13.486Z,7.19
2019-03-16T21:36:46.372Z,7.42
2019-03-16T21:39:19.165Z,7.35
2019-03-16T21:41:52.059Z,7.26
2019-03-16T21:44:24.887Z,7.33
2019-03-16T21:46:57.859Z,7.13
2019-03-16T21:49:30.633Z,6.95
2019-03-16T21:52:03.473Z,6.95
2019-03-16T21:54:36.252Z,6.86
2019-03-16T21:57:11.402Z,7.17
2019-03-16T21:59:44.434Z,7.28
2019-03-16T22:02:17.274Z,7.62
2019-03-16T22:04:50.168Z,7.53
2019-03-16T22:07:22.992Z,7.46
2019-03-16T22:09:55.834Z,7.56
2019-03-16T22:12:28.735Z,7.43
2019-03-16T22:15:01.594Z,7.31
2019-03-16T22:17:34.356Z,7.21
2019-03-16T22:20:09.374Z,7.28
2019-03-16T22:22:42.345Z,7.19
2019-03-16T22:25:15.334Z,7.00
2019-03-16T22:27:48.124Z,7.11
2019-03-16T22:30:20.953Z,7.43
2019-03-16T22:32:53.790Z,7.31
2019-03-16T22:35:26.626Z,7.19
2019-03-16T22:37:59.459Z,7.20
2019-03-16T22:40:32.308Z,6.87
2019-03-16T22:43:05.218Z,6.74
2019-03-16T22:45:37.991Z,6.81
2019-03-16T22:48:10.899Z,6.94
2019-03-16T22:50:42.902Z,7.17
2019-03-16T22:53:15.676Z,7.08
2019-03-16T22:55:48.670Z,6.99
2019-03-16T22:58:21.567Z,7.13
2019-03-16T23:00:55.120Z,7.22
2019-03-16T23:03:27.964Z,7.37
2019-03-16T23:06:00.981Z,7.48
2019-03-16T23:08:34.003Z,7.43
2019-03-16T23:11:07.281Z,7.18
2019-03-16T23:13:40.083Z,7.03
2019-03-16T23:16:13.014Z,6.91
2019-03-16T23:18:45.873Z,6.38
2019-03-16T23:21:18.791Z,6.37
2019-03-16T23:23:51.572Z,6.20
2019-03-16T23:26:24.481Z,6.43
2019-03-16T23:28:57.267Z,6.05
2019-03-16T23:31:30.130Z,5.99
2019-03-16T23:34:02.922Z,5.63
2019-03-16T23:36:35.782Z,5.56
2019-03-16T23:39:08.706Z,5.36
2019-03-16T23:41:41.658Z,5.29
2019-03-16T23:44:14.574Z,5.43
2019-03-16T23:46:47.509Z,5.49
2019-03-16T23:49:20.497Z,5.61
2019-03-16T23:51:53.351Z,5.34
2019-03-16T23:54:26.153Z,5.33
2019-03-16T23:56:59.045Z,5.50
2019-03-16T23:59:31.902Z,5.32
